SBJU Informações do Aeroporto

Informações da Pista
Pista 13 Comprimento 5906 ft Largura 148 ft
Elevação 0 ft Limite 0 ft Heading 0
Pista 31 Comprimento 5906 ft Largura 148 ft
Elevação 0 ft Limite 0 ft Heading 0
Frequências do Aeroporto
Tipo AFIS Nome JUAZEIRO R Frequência 131.75 MHZ
Navaids do Aeroporto
Tipo NDB Nome Juazeiro Frequência 205 KHZ
Informações meteorológicas do aeroporto e NOTAM
ADDS - METARS form results

(2230 UTC 22 March 2019)
Data provider http://aviationweather.gov/metar/data/
 
METAR text: SBJU 222200Z 10003KT 9999 SCT016 BKN070 27/23 Q1015
Conditions at: SBJU (JUAZEIRO D NORTE, BR) observed 2200 UTC 22 March 2019
Temperature: 27.0°C (81°F)
Dewpoint: 23.0°C (73°F) [RH = 79%]
Pressure (altimeter): 29.97 inches Hg (1015.0 mb)
Winds: from the E (100 degrees) at 3 MPH (3 knots; 1.5 m/s)
Visibility: 6 or more miles (10+ km)
Ceiling: 7000 feet AGL
Clouds: scattered clouds at 1600 feet AGL
broken clouds at 7000 feet AGL
Weather: no significant weather observed at this time